createdAt,value
2019-06-10T07:40:35.036Z,82.30
2019-06-10T07:41:34.435Z,81.60
2019-06-10T07:42:34.817Z,79.95
2019-06-10T07:43:37.473Z,82.15
2019-06-10T07:45:04.135Z,84.60
2019-06-10T07:47:24.145Z,82.25
2019-06-10T07:48:24.190Z,79.75
2019-06-10T07:50:04.238Z,68.55
2019-06-10T07:51:35.627Z,73.20
2019-06-10T07:52:34.725Z,76.10
2019-06-10T07:53:35.178Z,75.70
2019-06-10T07:55:04.358Z,71.60
2019-06-10T07:56:24.396Z,69.55
2019-06-10T07:57:35.662Z,65.05
2019-06-10T07:58:35.423Z,62.20
2019-06-10T08:00:04.763Z,59.50
2019-06-10T08:01:24.632Z,62.50
2019-06-10T08:02:35.618Z,55.90
2019-06-10T08:03:35.220Z,54.80
2019-06-10T08:05:04.750Z,55.15
2019-06-10T08:06:24.858Z,52.60
2019-06-10T08:07:24.837Z,50.80
2019-06-10T08:08:24.892Z,52.85
2019-06-10T08:09:54.951Z,54.15
2019-06-10T08:11:35.176Z,57.00
2019-06-10T08:12:35.118Z,55.65
2019-06-10T08:13:25.013Z,55.90
2019-06-10T08:15:05.095Z,58.35
2019-06-10T08:16:25.104Z,59.30
2019-06-10T08:18:25.153Z,60.25
2019-06-10T08:19:55.229Z,60.15
2019-06-10T08:21:25.246Z,56.90
2019-06-10T08:22:39.975Z,53.85
2019-06-10T08:23:36.055Z,54.30
2019-06-10T08:25:05.336Z,50.15
2019-06-10T08:27:25.392Z,51.70
2019-06-10T08:28:25.414Z,50.50
2019-06-10T08:31:25.551Z,49.65
2019-06-10T08:32:25.578Z,51.10
2019-06-10T08:33:25.607Z,50.00
2019-06-10T08:39:55.712Z,50.00
2019-06-10T08:41:25.732Z,46.65
2019-06-10T08:42:25.801Z,45.75
2019-06-10T08:43:25.851Z,44.95
2019-06-10T08:44:55.854Z,42.35
2019-06-10T08:46:25.862Z,43.50
2019-06-10T08:47:25.917Z,43.30
2019-06-10T08:48:25.955Z,43.85
2019-06-10T08:53:26.103Z,32.60
2019-06-10T08:54:56.623Z,33.60
2019-06-10T08:56:26.148Z,32.20
2019-06-10T08:57:26.206Z,31.75
2019-06-10T08:59:56.265Z,26.50
2019-06-10T09:02:26.398Z,31.60
2019-06-10T09:04:56.488Z,31.60
2019-06-10T09:06:26.529Z,30.80
2019-06-10T09:08:26.603Z,32.60
2019-06-10T09:09:56.746Z,31.60
2019-06-10T09:11:26.764Z,30.80
2019-06-10T09:12:32.376Z,30.25
2019-06-10T09:13:16.832Z,32.45
2019-06-10T09:14:48.395Z,27.10
2019-06-10T09:16:26.870Z,29.90
2019-06-10T09:17:16.909Z,27.70
2019-06-10T09:18:19.933Z,26.40
2019-06-10T09:19:49.165Z,26.40
2019-06-10T09:21:26.925Z,27.50
2019-06-10T09:22:16.958Z,25.95
2019-06-10T09:23:26.971Z,28.90
2019-06-10T09:24:56.991Z,25.90
2019-06-10T09:26:17.005Z,25.90
2019-06-10T09:27:27.217Z,25.95
2019-06-10T09:28:17.141Z,26.00
2019-06-10T09:29:49.583Z,22.80
2019-06-10T09:31:27.348Z,23.40
2019-06-10T09:32:27.420Z,24.80
2019-06-10T09:33:27.438Z,26.25
2019-06-10T09:34:57.858Z,24.70
2019-06-10T09:36:17.493Z,23.10
2019-06-10T09:37:27.555Z,22.60
2019-06-10T09:38:27.568Z,22.70
2019-06-10T09:39:59.540Z,20.60
2019-06-10T09:41:37.233Z,20.65
2019-06-10T09:42:27.718Z,22.55
2019-06-10T09:43:27.723Z,23.25
2019-06-10T09:44:50.101Z,24.50
2019-06-10T09:47:27.874Z,20.95
2019-06-10T09:48:27.885Z,20.40
2019-06-10T09:49:57.924Z,22.30
2019-06-10T09:51:27.931Z,21.35
2019-06-10T09:52:27.970Z,19.95
2019-06-10T09:53:32.731Z,20.00
2019-06-10T09:54:58.098Z,18.10
2019-06-10T09:56:28.115Z,20.30
2019-06-10T10:02:33.155Z,18.85
2019-06-10T10:03:33.035Z,18.45
2019-06-10T10:05:02.930Z,17.10
2019-06-10T10:07:32.543Z,16.35
2019-06-10T10:08:32.775Z,18.20
2019-06-10T10:11:32.485Z,15.65
2019-06-10T10:12:32.792Z,16.30
2019-06-10T10:13:35.225Z,16.60
2019-06-10T10:16:33.879Z,15.60
2019-06-10T10:17:33.354Z,16.10
2019-06-10T10:18:33.510Z,14.85
2019-06-10T10:23:48.363Z,13.90
2019-06-10T10:27:32.927Z,14.40
2019-06-10T10:28:33.545Z,14.50
2019-06-10T10:30:03.865Z,15.05
2019-06-10T10:32:33.505Z,12.70
2019-06-10T10:37:33.380Z,12.30
2019-06-10T10:40:03.897Z,13.80
2019-06-10T10:45:03.562Z,12.60
2019-06-10T10:46:33.565Z,13.55
2019-06-10T10:50:03.679Z,12.40
2019-06-10T10:51:13.675Z,14.30
2019-06-10T10:52:33.687Z,11.75
2019-06-10T10:53:33.703Z,12.10
2019-06-10T10:56:34.074Z,12.80
2019-06-10T10:58:33.928Z,11.55
2019-06-10T11:02:33.987Z,11.50
2019-06-10T11:05:04.020Z,12.00
2019-06-10T11:06:35.502Z,12.30
2019-06-10T11:08:34.112Z,11.40
2019-06-10T11:10:04.533Z,10.95
2019-06-10T11:13:34.186Z,10.35
2019-06-10T11:15:05.048Z,12.05
2019-06-10T11:16:34.335Z,11.50
2019-06-10T11:20:04.328Z,11.20
2019-06-10T11:22:34.475Z,11.80
2019-06-10T11:26:34.617Z,11.45
2019-06-10T11:27:34.711Z,10.70
2019-06-10T11:28:34.672Z,9.75
2019-06-10T11:33:34.897Z,13.05
2019-06-10T11:35:04.894Z,13.25
2019-06-10T11:36:34.887Z,12.20
2019-06-10T11:38:34.883Z,13.45
2019-06-10T11:40:04.869Z,12.90
2019-06-10T11:42:35.106Z,12.75
2019-06-10T11:43:35.028Z,13.30
2019-06-10T11:45:05.079Z,12.10
2019-06-10T11:47:15.143Z,11.75
2019-06-10T11:48:15.161Z,10.80
2019-06-10T11:50:05.256Z,10.00
2019-06-10T12:01:15.571Z,9.80
2019-06-10T12:07:15.788Z,10.10
2019-06-10T12:08:15.861Z,10.00
2019-06-10T12:11:15.935Z,10.20
2019-06-10T12:19:46.084Z,9.60
2019-06-10T12:21:16.465Z,10.50
2019-06-10T12:22:16.433Z,9.05
2019-06-10T12:29:46.378Z,8.30
2019-06-10T12:31:16.348Z,9.50
2019-06-10T12:33:21.242Z,10.25
2019-06-10T12:37:16.586Z,9.75
2019-06-10T12:38:16.638Z,8.50
2019-06-10T12:41:16.687Z,9.10
2019-06-10T12:42:16.694Z,7.80
2019-06-10T12:43:16.708Z,9.55
2019-06-10T12:44:57.579Z,8.80
2019-06-10T12:46:16.954Z,9.05
2019-06-10T12:47:16.903Z,8.80
2019-06-10T12:48:16.920Z,8.25
2019-06-10T12:49:57.556Z,9.90
2019-06-10T12:51:27.009Z,9.30
2019-06-10T12:52:27.026Z,10.05
2019-06-10T12:53:27.033Z,10.10
2019-06-10T12:54:47.064Z,10.60
2019-06-10T12:56:27.077Z,11.40
2019-06-10T12:57:27.091Z,12.10
2019-06-10T13:00:09.638Z,11.35
2019-06-10T13:02:34.559Z,9.05
2019-06-10T13:03:32.907Z,8.15
2019-06-10T13:06:32.420Z,11.40
2019-06-10T13:11:32.857Z,10.45
2019-06-10T13:12:33.212Z,12.10
2019-06-10T13:13:32.819Z,10.45
2019-06-10T13:17:32.099Z,9.05
2019-06-10T13:20:05.797Z,10.05
2019-06-10T13:21:32.934Z,10.45
2019-06-10T13:22:32.513Z,10.90
2019-06-10T13:23:35.120Z,9.55
2019-06-10T13:25:02.729Z,8.05
2019-06-10T13:28:32.773Z,9.60
2019-06-10T13:30:02.775Z,8.35
2019-06-10T13:31:33.551Z,9.30
2019-06-10T13:33:33.219Z,11.10
2019-06-10T13:35:03.717Z,9.80
2019-06-10T13:36:33.141Z,11.15
2019-06-10T13:37:33.301Z,10.75
2019-06-10T13:40:05.990Z,9.70
2019-06-10T13:42:36.664Z,9.15
2019-06-10T13:45:05.305Z,9.65
2019-06-10T13:47:33.252Z,12.40
2019-06-10T13:48:33.038Z,8.90
2019-06-10T13:51:35.561Z,10.85
2019-06-10T13:52:33.164Z,11.25
2019-06-10T13:53:33.188Z,10.00
2019-06-10T13:57:33.335Z,10.95
2019-06-10T13:58:33.411Z,11.15
2019-06-10T14:01:35.062Z,10.20
2019-06-10T14:02:33.391Z,9.05
2019-06-10T14:05:08.195Z,11.15
2019-06-10T14:10:08.175Z,9.20
2019-06-10T14:11:34.039Z,9.50
2019-06-10T14:12:33.941Z,10.50
2019-06-10T14:15:07.425Z,10.00
2019-06-10T14:17:34.052Z,8.60
2019-06-10T14:18:34.057Z,9.20
2019-06-10T14:20:04.114Z,8.50
2019-06-10T14:22:34.133Z,8.40
2019-06-10T14:23:34.152Z,9.60
2019-06-10T14:26:40.483Z,7.60
2019-06-10T14:28:40.207Z,10.25
2019-06-10T14:30:05.014Z,10.00
2019-06-10T14:32:34.677Z,9.10
2019-06-10T14:33:34.681Z,10.20
2019-06-10T14:37:39.047Z,7.60
2019-06-10T14:38:35.042Z,9.65
2019-06-10T14:40:05.358Z,7.40
2019-06-10T14:41:35.165Z,6.35
2019-06-10T14:43:35.383Z,7.85
2019-06-10T14:45:06.590Z,8.90
2019-06-10T14:47:16.716Z,8.45
2019-06-10T14:51:17.041Z,6.50
2019-06-10T14:53:16.781Z,7.75
2019-06-10T14:56:18.932Z,6.80
2019-06-10T14:57:16.801Z,6.70
2019-06-10T14:58:18.999Z,8.85
2019-06-10T15:01:21.818Z,8.65
2019-06-10T15:14:46.812Z,9.10
2019-06-10T15:16:26.975Z,9.80
2019-06-10T15:17:18.389Z,8.05
2019-06-10T15:18:27.182Z,10.60
2019-06-10T15:19:57.249Z,8.00
2019-06-10T15:21:27.332Z,7.90
2019-06-10T15:22:17.424Z,8.40
2019-06-10T15:23:19.105Z,8.25
2019-06-10T15:24:47.593Z,8.80
2019-06-10T15:26:17.810Z,9.75
2019-06-10T15:27:24.557Z,8.50
2019-06-10T15:28:31.822Z,6.90
2019-06-10T15:30:07.428Z,7.25
2019-06-10T15:31:21.934Z,7.40
2019-06-10T15:32:34.701Z,6.15
2019-06-10T15:33:32.739Z,6.70
2019-06-10T15:34:52.507Z,6.90
2019-06-10T15:36:32.738Z,7.00
2019-06-10T15:37:32.998Z,7.20
2019-06-10T15:38:32.870Z,8.15
2019-06-10T15:40:03.606Z,7.65
2019-06-10T15:41:24.594Z,7.45
2019-06-10T15:42:33.269Z,7.70
2019-06-10T15:43:23.285Z,6.50
2019-06-10T15:44:55.277Z,6.90
2019-06-10T15:46:32.430Z,7.40
2019-06-10T15:47:32.466Z,9.60
2019-06-10T15:48:24.901Z,8.10
2019-06-10T15:49:52.627Z,6.50
2019-06-10T15:51:33.123Z,6.50
2019-06-10T15:52:25.041Z,6.80
2019-06-10T15:53:32.858Z,6.95
2019-06-10T15:54:52.904Z,6.10
2019-06-10T15:56:44.749Z,7.45
2019-06-10T15:57:40.340Z,8.70
2019-06-10T15:58:32.949Z,8.00
2019-06-10T15:59:52.924Z,7.25
2019-06-10T16:01:32.972Z,7.35
2019-06-10T16:02:25.483Z,7.30
2019-06-10T16:03:25.330Z,6.75
2019-06-10T16:04:53.221Z,7.90
2019-06-10T16:06:24.326Z,7.15
2019-06-10T16:07:33.319Z,6.15
2019-06-10T16:08:33.327Z,8.30
2019-06-10T16:09:53.543Z,6.80
2019-06-10T16:11:33.470Z,7.90
2019-06-10T16:12:33.478Z,7.75
2019-06-10T16:13:33.576Z,6.80
2019-06-10T16:15:03.588Z,7.80
2019-06-10T16:16:23.654Z,5.95
2019-06-10T16:17:23.658Z,7.60
2019-06-10T16:18:25.787Z,8.50
2019-06-10T16:20:03.941Z,7.20
2019-06-10T16:21:33.906Z,6.90
2019-06-10T16:23:26.471Z,5.60
2019-06-10T16:25:04.086Z,6.20
2019-06-10T16:29:54.147Z,6.60
2019-06-10T16:31:27.112Z,6.90
2019-06-10T16:32:26.391Z,6.20
2019-06-10T16:39:54.417Z,6.90
2019-06-10T16:42:26.100Z,7.10
2019-06-10T16:44:54.753Z,6.00
2019-06-10T16:47:26.806Z,8.15
2019-06-10T16:56:26.354Z,5.90
2019-06-10T16:57:25.912Z,6.25
2019-06-10T16:58:15.345Z,5.90
2019-06-10T16:59:55.365Z,6.30
2019-06-10T17:01:28.343Z,6.30
2019-06-10T17:02:26.704Z,7.40
2019-06-10T17:03:27.102Z,6.25
2019-06-10T17:06:26.817Z,6.90
2019-06-10T17:07:26.868Z,6.00
2019-06-10T17:08:45.749Z,8.15
2019-06-10T17:09:45.757Z,5.90
2019-06-10T17:10:28.144Z,7.10
2019-06-10T17:11:28.706Z,5.60
2019-06-10T17:15:27.278Z,7.50
2019-06-10T17:16:16.503Z,6.20
2019-06-10T17:17:16.550Z,6.15
2019-06-10T17:18:46.631Z,6.70
2019-06-10T17:20:27.965Z,9.00
2019-06-10T17:21:30.104Z,7.60
2019-06-10T17:22:16.733Z,6.35
2019-06-10T17:23:56.799Z,6.00
2019-06-10T17:25:28.020Z,7.20
2019-06-10T17:26:30.354Z,5.90
2019-06-10T17:27:16.898Z,6.55
2019-06-10T17:28:52.114Z,6.40
2019-06-10T17:30:23.319Z,6.10
2019-06-10T17:32:23.522Z,9.10
2019-06-10T17:38:52.374Z,6.70
2019-06-10T17:42:27.506Z,6.40
2019-06-10T17:46:24.476Z,8.00
2019-06-10T17:47:24.464Z,7.30
2019-06-10T17:48:52.584Z,7.20
2019-06-10T17:50:23.769Z,6.15
2019-06-10T17:51:24.524Z,6.70
2019-06-10T17:56:24.631Z,6.00
2019-06-10T17:57:24.965Z,7.30
2019-06-10T17:58:51.442Z,6.80
2019-06-10T17:59:42.860Z,7.30
2019-06-10T18:00:24.493Z,7.40
2019-06-10T18:02:24.250Z,6.50
2019-06-10T18:03:53.083Z,7.50
2019-06-10T18:11:25.043Z,6.25
2019-06-10T18:13:53.385Z,8.15
2019-06-10T18:20:24.406Z,7.60
2019-06-10T18:22:24.386Z,7.40
2019-06-10T18:23:43.889Z,7.90
2019-06-10T18:24:43.992Z,6.60
2019-06-10T18:25:43.976Z,7.80
2019-06-10T18:26:44.125Z,7.45
2019-06-10T18:27:44.053Z,6.75
2019-06-10T18:29:01.564Z,7.50
2019-06-10T18:31:25.374Z,7.30
2019-06-10T18:32:25.224Z,7.30
2019-06-10T18:33:44.232Z,7.20
2019-06-10T18:34:44.321Z,6.60
2019-06-10T18:35:44.422Z,7.25
2019-06-10T18:40:24.521Z,6.70
2019-06-10T18:43:54.574Z,6.40
2019-06-10T18:45:44.752Z,8.05
2019-06-10T18:47:44.925Z,7.80
2019-06-10T18:50:26.014Z,7.80
2019-06-10T18:52:25.077Z,8.80
2019-06-10T18:55:15.190Z,9.00
2019-06-10T18:56:25.233Z,9.30
2019-06-10T18:57:25.339Z,8.40
2019-06-10T18:59:20.579Z,10.00
2019-06-10T19:01:45.471Z,8.15
2019-06-10T19:06:45.560Z,10.05
2019-06-10T19:07:46.833Z,10.90
2019-06-10T19:09:15.635Z,14.90
2019-06-10T19:10:45.707Z,14.15
2019-06-10T19:11:45.798Z,13.20
2019-06-10T19:14:15.905Z,19.20
2019-06-10T19:16:46.019Z,17.35
2019-06-10T19:17:46.138Z,19.10
2019-06-10T19:19:16.204Z,23.65
2019-06-10T19:20:46.260Z,18.65
2019-06-10T19:22:46.339Z,21.95
2019-06-10T19:25:38.495Z,19.95
2019-06-10T19:27:44.208Z,24.50
2019-06-10T19:30:44.844Z,21.85
2019-06-10T19:32:44.346Z,23.00
2019-06-10T19:33:53.417Z,25.85
2019-06-10T19:35:23.376Z,25.10
2019-06-10T19:47:45.678Z,23.80
2019-06-10T19:50:48.017Z,25.30
2019-06-10T19:52:45.414Z,37.95
2019-06-10T19:58:54.238Z,26.45
2019-06-10T20:00:24.266Z,29.00
2019-06-10T20:02:46.582Z,27.15
2019-06-10T20:03:54.447Z,26.65
2019-06-10T20:06:49.942Z,24.05
2019-06-10T20:07:49.883Z,24.90
2019-06-10T20:08:54.739Z,22.35
2019-06-10T20:12:46.633Z,22.50
2019-06-10T20:18:55.105Z,18.55
2019-06-10T20:21:46.564Z,20.55
2019-06-10T20:22:46.390Z,21.40
2019-06-10T20:26:46.450Z,18.35
2019-06-10T20:31:47.054Z,17.55
2019-06-10T20:32:49.792Z,18.20
2019-06-10T20:33:55.723Z,17.00
2019-06-10T20:35:45.799Z,20.00
2019-06-10T20:41:50.288Z,21.45
2019-06-10T20:42:46.593Z,16.30
2019-06-10T20:43:56.230Z,15.90
2019-06-10T20:46:47.479Z,19.60
2019-06-10T20:47:47.901Z,19.40
2019-06-10T20:50:26.542Z,18.40
2019-06-10T20:56:48.614Z,18.35
2019-06-10T20:58:02.107Z,18.20
2019-06-10T20:59:43.492Z,18.45
2019-06-10T21:00:46.891Z,17.80
2019-06-10T21:01:43.749Z,16.80
2019-06-10T21:02:44.119Z,20.80
2019-06-10T21:04:03.037Z,16.45
2019-06-10T21:05:31.492Z,16.45
2019-06-10T21:06:32.664Z,16.60
2019-06-10T21:07:43.778Z,17.40
2019-06-10T21:09:02.869Z,16.15
2019-06-10T21:10:44.987Z,18.20
2019-06-10T21:11:32.197Z,16.20
2019-06-10T21:12:44.362Z,17.25
2019-06-10T21:13:53.024Z,18.65
2019-06-10T21:15:33.303Z,17.40
2019-06-10T21:16:32.186Z,17.55
2019-06-10T21:17:33.255Z,19.80
2019-06-10T21:19:01.991Z,16.40
2019-06-10T21:20:22.478Z,17.95
2019-06-10T21:21:32.621Z,17.30
2019-06-10T21:22:32.568Z,17.90
2019-06-10T21:24:02.358Z,16.95
2019-06-10T21:25:32.592Z,15.80
2019-06-10T21:26:43.791Z,18.95
2019-06-10T21:29:03.787Z,16.05
2019-06-10T21:30:38.311Z,16.40
2019-06-10T21:31:45.110Z,17.65
2019-06-10T21:32:32.616Z,14.00
2019-06-10T21:33:55.604Z,16.15
2019-06-10T21:35:32.292Z,13.35
2019-06-10T21:36:43.338Z,14.90
2019-06-10T21:37:44.902Z,16.35
2019-06-10T21:39:02.846Z,15.05
2019-06-10T21:40:33.122Z,17.50
2019-06-10T21:41:32.547Z,16.95
2019-06-10T21:42:32.750Z,16.55
2019-06-10T21:43:58.638Z,14.00
2019-06-10T21:45:43.906Z,14.85
2019-06-10T21:46:32.800Z,16.05
2019-06-10T21:47:32.778Z,15.70
2019-06-10T21:49:02.799Z,14.00
2019-06-10T21:50:22.898Z,14.50
2019-06-10T21:52:33.019Z,15.15
2019-06-10T21:53:54.762Z,15.50
2019-06-10T21:55:43.663Z,14.85
2019-06-10T21:56:33.193Z,15.80
2019-06-10T21:57:33.297Z,15.25
2019-06-10T21:59:03.325Z,17.15
2019-06-10T22:04:04.487Z,12.70
2019-06-10T22:05:33.774Z,14.50
2019-06-10T22:08:56.278Z,13.70
2019-06-10T22:10:33.852Z,12.95
2019-06-10T22:11:33.862Z,14.50
2019-06-10T22:13:56.104Z,13.20
2019-06-10T22:15:34.094Z,14.90
2019-06-10T22:16:34.048Z,12.00
2019-06-10T22:17:34.148Z,12.50
2019-06-10T22:19:04.205Z,15.10
2019-06-10T22:24:04.540Z,11.75
2019-06-10T22:25:24.560Z,14.80
2019-06-10T22:26:34.603Z,15.15
2019-06-10T22:27:34.698Z,14.60
2019-06-10T22:28:57.204Z,11.10
2019-06-10T22:30:34.960Z,12.90
2019-06-10T22:31:35.124Z,15.65
2019-06-10T22:33:56.209Z,12.80
2019-06-10T22:35:25.077Z,12.80
2019-06-10T22:36:25.101Z,13.75
2019-06-10T22:39:05.156Z,15.10
2019-06-10T22:40:35.236Z,14.15
2019-06-10T22:42:35.433Z,13.70
2019-06-10T22:44:05.538Z,14.35
2019-06-10T22:45:35.581Z,13.00
2019-06-10T22:46:35.591Z,10.55
2019-06-10T22:49:06.635Z,14.60
2019-06-10T22:50:35.954Z,12.95
2019-06-10T22:54:06.135Z,13.90
2019-06-10T22:57:54.627Z,13.90
2019-06-10T22:59:42.514Z,14.40
2019-06-10T23:00:43.671Z,12.50
2019-06-10T23:01:42.443Z,12.60
2019-06-10T23:02:22.885Z,12.95
2019-06-10T23:04:03.730Z,12.50
2019-06-10T23:05:33.225Z,12.55
2019-06-10T23:06:33.907Z,12.60
2019-06-10T23:07:43.347Z,13.00
2019-06-10T23:08:54.390Z,11.85
2019-06-10T23:10:33.774Z,11.90
2019-06-10T23:11:32.455Z,10.50
2019-06-10T23:12:43.029Z,10.60
2019-06-10T23:14:03.181Z,9.95
2019-06-10T23:15:32.595Z,10.05
2019-06-10T23:16:32.770Z,11.20
2019-06-10T23:17:42.731Z,10.90
2019-06-10T23:18:53.977Z,12.80
2019-06-10T23:20:42.959Z,11.75
2019-06-10T23:21:32.785Z,10.70
2019-06-10T23:22:42.943Z,10.95
2019-06-10T23:23:55.145Z,9.60
2019-06-10T23:25:43.221Z,11.40
2019-06-10T23:26:33.408Z,10.60
2019-06-10T23:27:44.276Z,11.55
2019-06-10T23:28:55.615Z,10.50
2019-06-10T23:30:43.422Z,12.20
2019-06-10T23:31:46.182Z,11.30
2019-06-10T23:32:43.673Z,11.90
2019-06-10T23:33:56.350Z,10.95
2019-06-10T23:35:43.692Z,10.00
2019-06-10T23:36:33.820Z,11.40
2019-06-10T23:37:33.846Z,12.50
2019-06-10T23:38:54.828Z,11.90
2019-06-10T23:40:33.894Z,10.75
2019-06-10T23:41:33.970Z,10.90
2019-06-10T23:42:33.974Z,11.10
2019-06-10T23:44:04.420Z,11.10
2019-06-10T23:45:34.114Z,10.20
2019-06-10T23:46:34.178Z,9.90
2019-06-10T23:47:44.190Z,11.40
2019-06-10T23:49:04.701Z,11.00
2019-06-10T23:50:44.388Z,9.70
2019-06-10T23:51:44.454Z,9.30
2019-06-10T23:52:34.600Z,10.80
2019-06-10T23:54:06.145Z,8.75
2019-06-10T23:55:44.859Z,8.40
2019-06-10T23:56:34.839Z,10.40
2019-06-10T23:57:44.929Z,9.70
2019-06-10T23:59:04.955Z,9.15
